Time;durP1;ratioP1;P1;durP2;ratioP2;P2;SDS_P1;SDS_P2;PMS_P1;PMS_P2;Temp;Humidity;BMP_temperature;BMP_pressure;BME280_temperature;BME280_humidity;BME280_pressure;Samples;Min_cycle;Max_cycle;Signal;HPM_P1;HPM_P2
2022/09/02 00:02:23;;;;;;;6.60;6.20;;;15.50;99.90;;;;;;6061533;23;20455;-71
2022/09/02 00:04:50;;;;;;;6.47;6.07;;;15.40;99.90;;;;;;6067894;23;20480;-71
2022/09/02 00:07:17;;;;;;;6.40;6.00;;;15.40;99.90;;;;;;6063823;23;20844;-71
2022/09/02 00:09:44;;;;;;;5.60;5.30;;;15.40;99.90;;;;;;6048816;23;20574;-71
2022/09/02 00:12:12;;;;;;;6.30;5.80;;;15.40;99.90;;;;;;6072246;23;20438;-71
2022/09/02 00:14:39;;;;;;;6.97;6.47;;;15.40;99.90;;;;;;6064402;23;20462;-71
2022/09/02 00:17:07;;;;;;;5.70;5.40;;;15.30;99.90;;;;;;6050243;23;20476;-71
2022/09/02 00:19:35;;;;;;;6.03;5.63;;;15.30;99.90;;;;;;6063958;23;20446;-71
2022/09/02 00:22:03;;;;;;;6.63;6.10;;;15.30;99.90;;;;;;6067119;23;20475;-70
2022/09/02 00:24:31;;;;;;;6.80;6.40;;;15.30;99.90;;;;;;6067687;23;20541;-71
2022/09/02 00:26:58;;;;;;;6.80;6.30;;;15.20;99.90;;;;;;6070816;23;20527;-71
2022/09/02 00:29:28;;;;;;;6.77;6.37;;;15.30;99.90;;;;;;6065184;23;20453;-71
2022/09/02 00:31:55;;;;;;;5.53;5.13;;;15.20;99.90;;;;;;6061626;23;20447;-72
2022/09/02 00:34:22;;;;;;;5.33;4.93;;;15.20;99.90;;;;;;6065582;23;20813;-71
2022/09/02 00:36:49;;;;;;;6.03;5.63;;;15.20;99.90;;;;;;6063275;23;20973;-71
2022/09/02 00:39:17;;;;;;;5.30;5.00;;;15.20;99.90;;;;;;6068072;23;20439;-71
2022/09/02 00:41:45;;;;;;;5.50;5.10;;;15.20;99.90;;;;;;6068396;23;20440;-71
2022/09/02 00:44:15;;;;;;;5.20;4.80;;;15.20;99.90;;;;;;6068386;23;20520;-71
2022/09/02 00:46:44;;;;;;;5.97;5.57;;;15.20;99.90;;;;;;6080220;23;20959;-71
2022/09/02 00:49:16;;;;;;;5.90;5.50;;;15.20;99.90;;;;;;6073140;23;20523;-71
2022/09/02 00:51:46;;;;;;;6.40;6.00;;;15.10;99.90;;;;;;6078622;23;20449;-71
2022/09/02 00:54:16;;;;;;;5.77;5.30;;;15.10;99.90;;;;;;6057344;23;20533;-71
2022/09/02 00:56:46;;;;;;;5.93;5.53;;;15.10;99.90;;;;;;6051504;23;20991;-71
2022/09/02 00:59:18;;;;;;;6.37;5.87;;;15.10;99.90;;;;;;6061190;23;20477;-71
2022/09/02 01:01:47;;;;;;;6.30;5.80;;;15.10;99.90;;;;;;6064448;23;20529;-71
2022/09/02 01:04:16;;;;;;;6.10;5.70;;;15.10;99.90;;;;;;6059531;23;20455;-71
2022/09/02 01:06:43;;;;;;;6.40;5.80;;;15.10;99.90;;;;;;6077316;23;20434;-71
2022/09/02 01:09:14;;;;;;;6.90;5.97;;;15.10;99.90;;;;;;6066957;23;20440;-71
2022/09/02 01:11:46;;;;;;;6.10;5.70;;;15.10;99.90;;;;;;6060868;23;22041;-71
2022/09/02 01:14:13;;;;;;;5.73;5.43;;;15.00;99.90;;;;;;6060116;23;20456;-71
2022/09/02 01:16:43;;;;;;;6.40;5.90;;;15.00;99.90;;;;;;6063451;23;20469;-71
2022/09/02 01:19:21;;;;;;;6.50;6.00;;;15.00;99.90;;;;;;6055290;23;20487;-71
2022/09/02 01:21:51;;;;;;;5.57;5.17;;;15.00;99.90;;;;;;6075324;23;20437;-71
2022/09/02 01:24:20;;;;;;;6.10;5.70;;;14.90;99.90;;;;;;6052553;23;20456;-71
2022/09/02 01:26:48;;;;;;;5.70;5.30;;;14.90;99.90;;;;;;6075190;23;20437;-71
2022/09/02 01:29:16;;;;;;;6.50;6.00;;;14.90;99.90;;;;;;6071102;23;20475;-71
2022/09/02 01:31:44;;;;;;;6.13;5.73;;;14.90;99.90;;;;;;6051106;23;20465;-71
2022/09/02 01:34:11;;;;;;;5.60;5.20;;;14.80;99.90;;;;;;6059055;23;20485;-71
2022/09/02 01:36:39;;;;;;;5.40;5.10;;;14.80;99.90;;;;;;6061317;23;20509;-71
2022/09/02 01:39:09;;;;;;;5.60;5.20;;;14.90;99.90;;;;;;6059983;23;20456;-71
2022/09/02 01:41:36;;;;;;;5.20;4.80;;;14.80;99.90;;;;;;6054463;23;20461;-71
2022/09/02 01:44:04;;;;;;;5.70;5.20;;;14.80;99.90;;;;;;6048849;23;20497;-71
2022/09/02 01:46:32;;;;;;;5.60;5.10;;;14.80;99.90;;;;;;6068722;23;20530;-71
2022/09/02 01:48:59;;;;;;;5.63;5.13;;;14.80;99.90;;;;;;6055077;23;20439;-72
2022/09/02 01:51:26;;;;;;;6.10;5.60;;;14.80;99.90;;;;;;6068371;23;20502;-71
2022/09/02 01:53:53;;;;;;;5.93;5.53;;;14.80;99.90;;;;;;6051889;23;20457;-71
2022/09/02 01:56:21;;;;;;;6.27;5.87;;;14.80;99.90;;;;;;6049205;23;20440;-71
2022/09/02 01:58:49;;;;;;;6.47;5.93;;;14.80;99.90;;;;;;6064234;23;20553;-71
2022/09/02 02:01:16;;;;;;;6.70;6.20;;;14.80;99.90;;;;;;6063764;23;20476;-71
2022/09/02 02:03:43;;;;;;;6.80;6.20;;;14.70;99.90;;;;;;6059890;23;20459;-71
2022/09/02 02:06:13;;;;;;;6.20;5.73;;;14.70;99.90;;;;;;6062128;23;20457;-71
2022/09/02 02:08:41;;;;;;;6.43;6.03;;;14.60;99.90;;;;;;6057185;23;20447;-71
2022/09/02 02:11:08;;;;;;;7.00;6.50;;;14.60;99.90;;;;;;6060606;23;20464;-71
2022/09/02 02:13:38;;;;;;;6.77;6.30;;;14.50;99.90;;;;;;6058054;23;20833;-71
2022/09/02 02:16:05;;;;;;;6.77;6.37;;;14.40;99.90;;;;;;6061048;23;20760;-71
2022/09/02 02:18:32;;;;;;;6.63;6.13;;;14.40;99.90;;;;;;6073509;23;20461;-71
2022/09/02 02:20:59;;;;;;;6.43;6.03;;;14.30;99.90;;;;;;6064724;23;20528;-71
2022/09/02 02:23:26;;;;;;;6.70;6.30;;;14.30;99.90;;;;;;6065097;23;20433;-71
2022/09/02 02:25:53;;;;;;;6.07;5.67;;;14.20;99.90;;;;;;6049162;23;20454;-71
2022/09/02 02:28:21;;;;;;;6.57;5.97;;;14.20;99.90;;;;;;6071534;23;20473;-71
2022/09/02 02:30:49;;;;;;;6.43;6.03;;;14.20;99.90;;;;;;6081526;23;20935;-71
2022/09/02 02:33:16;;;;;;;7.30;6.60;;;14.10;99.90;;;;;;6058680;23;20488;-71
2022/09/02 02:35:43;;;;;;;7.27;6.50;;;14.10;99.90;;;;;;6066520;23;20999;-70
2022/09/02 02:38:11;;;;;;;6.80;6.30;;;14.00;99.90;;;;;;6074935;23;20463;-71
2022/09/02 02:40:37;;;;;;;6.40;5.90;;;14.00;99.90;;;;;;6076465;23;20466;-71
2022/09/02 02:43:05;;;;;;;6.10;5.70;;;14.00;99.90;;;;;;6055189;23;20823;-71
2022/09/02 02:45:32;;;;;;;6.20;5.70;;;13.90;99.90;;;;;;6057623;23;20509;-72
2022/09/02 02:48:00;;;;;;;6.00;5.50;;;13.90;99.90;;;;;;6065845;23;20435;-71
2022/09/02 02:50:27;;;;;;;6.27;5.83;;;13.90;99.90;;;;;;6070590;23;20492;-71
2022/09/02 02:52:56;;;;;;;5.67;5.27;;;13.90;99.90;;;;;;6058055;23;20437;-71
2022/09/02 02:55:24;;;;;;;5.60;5.20;;;13.90;99.90;;;;;;6053384;23;20453;-71
2022/09/02 02:57:51;;;;;;;6.00;5.50;;;13.90;99.90;;;;;;6054480;23;20568;-71
2022/09/02 03:00:22;;;;;;;5.77;5.27;;;13.90;99.90;;;;;;6060721;23;20876;-71
2022/09/02 03:02:49;;;;;;;5.55;5.15;;;13.90;99.90;;;;;;6059799;23;20438;-71
2022/09/02 03:05:18;;;;;;;5.27;4.97;;;13.90;99.90;;;;;;6057281;23;20219;-71
2022/09/02 03:07:45;;;;;;;5.40;5.00;;;13.90;99.90;;;;;;6073948;23;20439;-71
2022/09/02 03:10:14;;;;;;;4.65;4.35;;;13.90;99.90;;;;;;6061846;23;20465;-71
2022/09/02 03:12:41;;;;;;;5.70;5.30;;;13.90;99.90;;;;;;6050278;23;20265;-71
2022/09/02 03:15:10;;;;;;;5.27;4.97;;;13.90;99.90;;;;;;6059977;23;20479;-70
2022/09/02 03:17:37;;;;;;;5.50;5.10;;;13.80;99.90;;;;;;6074739;23;20458;-71
2022/09/02 03:20:06;;;;;;;4.90;4.60;;;13.90;99.90;;;;;;6058855;23;20443;-71
2022/09/02 03:22:37;;;;;;;5.50;5.00;;;13.80;99.90;;;;;;6066554;23;20444;-71
2022/09/02 03:25:06;;;;;;;5.38;5.00;;;13.80;99.90;;;;;;6054885;23;20458;-71
2022/09/02 03:27:33;;;;;;;4.60;4.30;;;13.80;99.90;;;;;;6071627;23;20196;-71
2022/09/02 03:30:01;;;;;;;5.30;4.80;;;13.80;99.90;;;;;;6067740;23;20454;-71
2022/09/02 03:32:28;;;;;;;5.47;5.07;;;13.80;99.90;;;;;;6065000;23;20438;-71
2022/09/02 03:34:55;;;;;;;5.63;5.13;;;13.80;99.90;;;;;;6058337;23;20291;-71
2022/09/02 03:37:22;;;;;;;5.75;5.35;;;13.80;99.90;;;;;;6065229;23;20285;-71
2022/09/02 03:39:51;;;;;;;5.40;5.10;;;13.70;99.90;;;;;;6061601;23;20184;-70
2022/09/02 03:42:18;;;;;;;5.35;4.85;;;13.70;99.90;;;;;;6070099;23;20189;-70
2022/09/02 03:44:45;;;;;;;5.28;4.88;;;13.70;99.90;;;;;;6063929;23;20224;-71
2022/09/02 03:47:15;;;;;;;5.23;4.83;;;13.70;99.90;;;;;;6055712;23;20193;-71
2022/09/02 03:49:43;;;;;;;6.07;5.67;;;13.70;99.90;;;;;;6062372;23;20430;-71
2022/09/02 03:52:10;;;;;;;5.15;4.85;;;13.70;99.90;;;;;;6055716;23;20472;-71
2022/09/02 03:54:37;;;;;;;4.85;4.55;;;13.70;99.90;;;;;;6063290;23;20280;-71
2022/09/02 03:57:05;;;;;;;5.23;4.93;;;13.70;99.90;;;;;;6061144;23;20289;-71
2022/09/02 03:59:32;;;;;;;5.68;5.28;;;13.70;99.90;;;;;;6071172;23;20464;-71
2022/09/02 04:02:02;;;;;;;5.40;5.00;;;13.70;99.90;;;;;;6065219;23;20229;-71
2022/09/02 04:04:29;;;;;;;5.80;5.40;;;13.70;99.90;;;;;;6057291;23;20214;-71
2022/09/02 04:06:57;;;;;;;6.60;6.10;;;13.70;99.90;;;;;;6073231;23;20851;-71
2022/09/02 04:09:25;;;;;;;5.38;4.95;;;13.60;99.90;;;;;;6069587;23;20486;-71
2022/09/02 04:11:53;;;;;;;5.30;5.00;;;13.60;99.90;;;;;;6062275;23;20185;-70
2022/09/02 04:14:21;;;;;;;5.20;4.80;;;13.60;99.90;;;;;;6051407;23;20219;-71
2022/09/02 04:16:49;;;;;;;7.13;5.30;;;13.60;99.90;;;;;;6061814;23;20493;-71
2022/09/02 04:19:16;;;;;;;6.35;5.78;;;13.60;99.90;;;;;;6058632;23;20938;-71
2022/09/02 04:21:43;;;;;;;5.70;5.20;;;13.60;99.90;;;;;;6058485;23;20198;-71
2022/09/02 04:24:12;;;;;;;6.15;5.38;;;13.60;99.90;;;;;;6064273;23;20464;-71
2022/09/02 04:26:39;;;;;;;6.00;5.60;;;13.50;99.90;;;;;;6069328;23;20652;-70
2022/09/02 04:29:06;;;;;;;5.75;5.35;;;13.50;99.90;;;;;;6062962;23;20221;-70
2022/09/02 04:31:35;;;;;;;5.50;5.10;;;13.50;99.90;;;;;;6061516;23;20256;-71
2022/09/02 04:34:03;;;;;;;5.40;5.00;;;13.50;99.90;;;;;;6068246;23;20610;-71
2022/09/02 04:36:30;;;;;;;5.20;4.80;;;13.50;99.90;;;;;;6056530;23;20205;-71
2022/09/02 04:38:59;;;;;;;7.15;5.53;;;13.50;99.90;;;;;;6054837;23;21042;-71
2022/09/02 04:41:27;;;;;;;4.93;4.63;;;13.40;99.90;;;;;;6067768;23;20256;-71
2022/09/02 04:43:56;;;;;;;4.90;4.50;;;13.50;99.90;;;;;;6068953;23;21023;-71
2022/09/02 04:46:24;;;;;;;4.95;4.55;;;13.40;99.90;;;;;;6048759;23;20833;-71
2022/09/02 04:48:52;;;;;;;5.00;4.60;;;13.30;99.90;;;;;;6049199;23;20230;-70
2022/09/02 04:51:21;;;;;;;5.05;4.65;;;13.40;99.90;;;;;;6061170;23;20256;-71
2022/09/02 04:53:50;;;;;;;4.70;4.40;;;13.30;99.90;;;;;;6053098;23;20280;-71
2022/09/02 04:56:20;;;;;;;4.97;4.57;;;13.30;99.90;;;;;;6056667;23;20566;-71
2022/09/02 04:58:49;;;;;;;6.95;4.80;;;13.30;99.90;;;;;;6057080;23;20939;-70
2022/09/02 05:01:19;;;;;;;4.85;4.55;;;13.30;99.90;;;;;;6068441;23;20189;-71
2022/09/02 05:03:47;;;;;;;5.00;4.60;;;13.30;99.90;;;;;;6055031;23;20281;-71
2022/09/02 05:06:19;;;;;;;4.97;4.68;;;13.30;99.90;;;;;;6051287;23;20193;-71
2022/09/02 05:08:46;;;;;;;4.83;4.43;;;13.30;99.90;;;;;;6058550;23;20692;-71
2022/09/02 05:11:17;;;;;;;5.10;4.67;;;13.30;99.90;;;;;;6062510;23;20432;-71
2022/09/02 05:13:44;;;;;;;4.38;4.07;;;13.30;99.90;;;;;;6050310;23;20452;-72
2022/09/02 05:16:15;;;;;;;4.33;3.93;;;13.30;99.90;;;;;;6064959;23;20194;-73
2022/09/02 05:18:42;;;;;;;4.80;4.50;;;13.30;99.90;;;;;;6035586;23;20501;-71
2022/09/02 05:21:09;;;;;;;4.77;4.37;;;13.30;99.90;;;;;;6037310;23;20441;-71
2022/09/02 05:23:38;;;;;;;4.80;4.25;;;13.40;99.90;;;;;;6064267;23;20464;-71
2022/09/02 05:26:06;;;;;;;5.13;4.73;;;13.40;99.90;;;;;;6050157;23;20197;-71
2022/09/02 05:28:33;;;;;;;5.43;5.03;;;13.40;99.90;;;;;;6043396;23;20555;-72
2022/09/02 05:31:04;;;;;;;4.50;4.20;;;13.60;99.90;;;;;;6053479;23;20272;-71
2022/09/02 05:33:32;;;;;;;4.80;4.50;;;13.50;99.90;;;;;;6050230;23;20821;-71
2022/09/02 05:35:59;;;;;;;5.40;4.93;;;13.50;99.90;;;;;;6058530;23;20512;-72
2022/09/02 05:38:43;;;;;;;4.40;4.10;;;13.50;99.90;;;;;;6039273;23;20925;-68
2022/09/02 05:41:13;;;;;;;5.03;4.73;;;13.60;99.90;;;;;;6041941;23;20468;-68
2022/09/02 05:43:43;;;;;;;4.57;4.27;;;13.70;99.90;;;;;;6044864;23;20452;-66
2022/09/02 05:46:13;;;;;;;4.80;4.40;;;13.70;99.90;;;;;;6051037;23;20470;-67
2022/09/02 05:51:27;;;;;;;4.40;4.00;;;13.90;99.90;;;;;;6051796;23;20460;-67
2022/09/02 05:53:57;;;;;;;4.23;3.93;;;14.00;99.90;;;;;;6045007;23;20465;-67
2022/09/02 05:56:26;;;;;;;4.60;4.30;;;14.10;99.90;;;;;;6048177;23;20526;-67
2022/09/02 05:58:55;;;;;;;4.90;4.60;;;14.20;99.90;;;;;;6059606;23;20450;-68
2022/09/02 06:01:23;;;;;;;4.50;4.20;;;14.20;99.90;;;;;;6039831;23;20883;-78
2022/09/02 06:03:51;;;;;;;4.70;4.40;;;14.40;99.90;;;;;;6049510;23;20860;-68
2022/09/02 06:06:22;;;;;;;4.37;4.07;;;14.40;99.90;;;;;;6056866;23;20453;-69
2022/09/02 06:08:50;;;;;;;3.93;3.50;;;14.50;99.90;;;;;;6030299;23;20635;-67
2022/09/02 06:11:18;;;;;;;4.13;3.83;;;14.50;99.90;;;;;;6042058;23;21012;-68
2022/09/02 06:13:47;;;;;;;4.57;4.17;;;14.60;99.90;;;;;;6040968;23;21008;-66
2022/09/02 06:16:18;;;;;;;4.17;3.77;;;14.70;99.90;;;;;;6041045;23;20521;-66
2022/09/02 06:18:45;;;;;;;4.17;3.67;;;14.80;99.90;;;;;;6047358;23;20463;-65
2022/09/02 06:21:13;;;;;;;3.50;3.30;;;15.00;99.90;;;;;;6047915;23;20959;-65
2022/09/02 06:23:41;;;;;;;3.90;3.60;;;15.10;99.90;;;;;;6042911;23;20456;-69
2022/09/02 06:26:11;;;;;;;4.43;4.13;;;15.30;99.90;;;;;;6046321;23;20481;-75
2022/09/02 06:28:39;;;;;;;3.83;3.53;;;15.40;99.90;;;;;;6038273;23;20467;-74
2022/09/02 06:31:08;;;;;;;4.07;3.63;;;15.70;99.90;;;;;;6036543;23;20522;-75
2022/09/02 06:33:35;;;;;;;3.83;3.53;;;15.80;99.90;;;;;;6040423;23;20481;-75
2022/09/02 06:36:06;;;;;;;3.60;2.97;;;16.00;99.90;;;;;;6051458;23;20444;-75
2022/09/02 06:38:37;;;;;;;3.23;3.03;;;16.10;99.90;;;;;;6042937;23;20510;-68
2022/09/02 06:41:05;;;;;;;3.57;3.20;;;16.30;99.90;;;;;;6037344;23;20444;-68
2022/09/02 06:43:32;;;;;;;3.70;3.33;;;16.50;99.90;;;;;;6039598;23;20802;-68
2022/09/02 06:46:04;;;;;;;4.83;3.30;;;16.60;99.90;;;;;;6046902;23;20531;-68
2022/09/02 06:48:32;;;;;;;3.40;3.10;;;16.80;99.90;;;;;;6052307;23;20490;-69
2022/09/02 06:51:00;;;;;;;4.50;2.80;;;17.00;99.90;;;;;;6037992;23;20517;-68
2022/09/02 06:53:27;;;;;;;4.00;3.20;;;17.40;99.90;;;;;;6058580;23;20530;-68
2022/09/02 06:55:56;;;;;;;3.07;2.80;;;17.80;99.90;;;;;;6069757;23;20462;-68
2022/09/02 06:58:23;;;;;;;3.30;3.00;;;18.20;99.90;;;;;;6076652;23;20439;-68
2022/09/02 07:00:51;;;;;;;3.00;2.80;;;18.50;99.90;;;;;;6059589;23;20525;-67
2022/09/02 07:06:08;;;;;;;3.20;2.80;;;18.90;99.90;;;;;;6084184;23;20461;-67
2022/09/02 07:08:37;;;;;;;5.23;3.17;;;19.00;99.90;;;;;;6079116;23;20474;-67
2022/09/02 07:11:05;;;;;;;3.37;3.07;;;19.20;99.90;;;;;;6071310;23;20485;-68
2022/09/02 07:13:33;;;;;;;3.20;3.00;;;19.30;99.90;;;;;;6072576;23;20459;-68
2022/09/02 07:16:01;;;;;;;4.83;3.30;;;19.60;99.90;;;;;;6069833;23;20470;-68
2022/09/02 07:18:29;;;;;;;2.90;2.63;;;19.70;99.90;;;;;;6077561;23;20624;-68
2022/09/02 07:20:58;;;;;;;2.83;2.63;;;19.90;99.90;;;;;;6076288;23;20433;-67
2022/09/02 07:23:26;;;;;;;3.20;2.90;;;20.00;99.90;;;;;;6082371;23;20441;-67
2022/09/02 07:25:54;;;;;;;2.90;2.70;;;20.10;99.90;;;;;;6073052;23;20437;-68
2022/09/02 07:28:22;;;;;;;2.70;2.50;;;20.20;99.90;;;;;;6068668;23;20489;-68
2022/09/02 07:30:53;;;;;;;3.83;3.40;;;20.10;99.90;;;;;;6072629;23;20442;-68
2022/09/02 07:33:23;;;;;;;3.60;3.07;;;20.20;99.90;;;;;;6071810;23;20435;-68
2022/09/02 07:35:52;;;;;;;2.83;2.63;;;20.30;99.90;;;;;;6073842;23;20458;-67
2022/09/02 07:38:21;;;;;;;3.00;2.70;;;20.30;99.90;;;;;;6068311;23;20458;-67
2022/09/02 07:40:53;;;;;;;3.20;2.90;;;20.50;99.90;;;;;;6071313;23;20484;-68
2022/09/02 07:43:21;;;;;;;2.77;2.57;;;20.90;99.90;;;;;;6078609;23;20439;-67
2022/09/02 07:45:51;;;;;;;3.03;2.77;;;21.10;99.90;;;;;;6078588;23;20447;-68
2022/09/02 07:48:18;;;;;;;2.93;2.30;;;21.20;99.90;;;;;;6071843;23;20500;-67
2022/09/02 07:50:46;;;;;;;2.67;2.47;;;21.40;99.90;;;;;;6078368;23;20435;-68
2022/09/02 07:53:15;;;;;;;2.57;2.37;;;21.70;99.90;;;;;;6074889;23;20458;-68
2022/09/02 07:55:43;;;;;;;4.30;2.60;;;21.80;99.90;;;;;;6065505;23;20443;-65
2022/09/02 07:58:11;;;;;;;2.90;2.60;;;21.80;99.90;;;;;;6073915;23;20489;-69
2022/09/02 08:00:41;;;;;;;2.43;2.23;;;21.80;99.90;;;;;;6071982;23;20659;-67
2022/09/02 08:03:13;;;;;;;2.43;2.23;;;22.10;99.90;;;;;;6072097;23;22131;-67
2022/09/02 08:05:43;;;;;;;2.23;2.03;;;22.40;99.90;;;;;;6073824;23;20517;-67
2022/09/02 08:08:11;;;;;;;4.40;2.30;;;22.70;99.90;;;;;;6084895;23;20528;-67
2022/09/02 08:10:40;;;;;;;2.27;2.07;;;23.00;99.90;;;;;;6070017;23;20432;-67
2022/09/02 08:13:09;;;;;;;2.30;2.10;;;23.30;99.90;;;;;;6073668;23;20470;-66
2022/09/02 08:15:37;;;;;;;2.40;2.20;;;23.60;99.90;;;;;;6076136;23;20449;-66
2022/09/02 08:18:09;;;;;;;2.50;2.30;;;23.70;99.30;;;;;;6074141;23;20520;-66
2022/09/02 08:20:37;;;;;;;2.10;2.00;;;23.70;99.70;;;;;;6083546;23;20448;-66
2022/09/02 08:23:07;;;;;;;1.80;1.50;;;23.80;98.60;;;;;;6080884;23;20850;-66
2022/09/02 08:25:37;;;;;;;2.90;2.00;;;23.80;98.20;;;;;;6066993;23;20473;-66
2022/09/02 08:28:05;;;;;;;2.00;1.80;;;24.10;99.50;;;;;;6079866;23;20476;-67
2022/09/02 08:30:33;;;;;;;2.33;2.13;;;24.60;98.10;;;;;;6079747;23;20554;-67
2022/09/02 08:33:01;;;;;;;2.50;2.17;;;24.90;96.20;;;;;;6083427;23;21242;-66
2022/09/02 08:35:30;;;;;;;2.50;2.13;;;24.80;95.20;;;;;;6075652;23;20500;-67
2022/09/02 08:37:58;;;;;;;1.83;1.67;;;24.70;95.10;;;;;;6073648;23;20951;-66
2022/09/02 08:40:34;;;;;;;2.13;1.80;;;24.80;94.40;;;;;;6072685;23;20504;-66
2022/09/02 08:43:04;;;;;;;1.93;1.60;;;24.80;94.20;;;;;;6076284;23;20422;-67
2022/09/02 08:45:36;;;;;;;1.97;1.77;;;24.70;93.40;;;;;;6077675;23;20454;-66
2022/09/02 08:48:09;;;;;;;2.10;1.50;;;24.70;92.90;;;;;;6072580;23;20521;-66
2022/09/02 08:50:38;;;;;;;1.90;1.67;;;24.70;93.50;;;;;;6072688;23;21084;-66
2022/09/02 08:53:17;;;;;;;2.40;1.73;;;24.60;93.20;;;;;;6073408;23;20496;-66
2022/09/02 08:55:49;;;;;;;2.80;1.80;;;24.60;93.30;;;;;;6068214;23;20454;-67
2022/09/02 08:58:22;;;;;;;2.00;1.80;;;24.90;92.70;;;;;;6078207;23;20428;-67
2022/09/02 09:00:59;;;;;;;2.40;1.50;;;24.80;92.00;;;;;;6084484;23;20533;-66
2022/09/02 09:03:30;;;;;;;1.93;1.47;;;24.70;90.70;;;;;;6083235;23;20484;-66
2022/09/02 09:06:06;;;;;;;1.40;1.30;;;24.40;91.50;;;;;;6081447;23;20476;-66
2022/09/02 09:08:43;;;;;;;1.87;1.70;;;24.40;90.50;;;;;;6083170;23;20525;-66
2022/09/02 09:11:21;;;;;;;1.47;1.37;;;24.30;90.70;;;;;;6076107;23;20834;-66
2022/09/02 09:14:06;;;;;;;1.50;1.40;;;24.30;91.10;;;;;;6084579;23;20460;-66
2022/09/02 09:16:42;;;;;;;3.10;1.70;;;23.70;90.80;;;;;;6082685;23;20442;-66
2022/09/02 09:19:14;;;;;;;2.83;1.73;;;23.20;91.60;;;;;;6084866;23;20438;-69
2022/09/02 09:21:44;;;;;;;1.60;1.50;;;23.00;92.30;;;;;;6079888;23;20453;-65
2022/09/02 09:24:22;;;;;;;1.70;1.60;;;22.90;92.50;;;;;;6073095;23;20447;-66
2022/09/02 09:26:49;;;;;;;1.70;1.60;;;22.80;92.30;;;;;;6080975;23;20438;-68
2022/09/02 09:29:16;;;;;;;2.33;1.50;;;23.10;92.00;;;;;;6072262;23;21020;-67
2022/09/02 09:31:49;;;;;;;2.67;1.50;;;23.60;91.90;;;;;;6079757;23;20928;-66
2022/09/02 09:34:16;;;;;;;1.80;1.70;;;24.00;91.00;;;;;;6076769;23;20457;-67
2022/09/02 09:36:50;;;;;;;2.40;1.53;;;24.10;90.20;;;;;;6085577;23;20442;-67
2022/09/02 09:39:19;;;;;;;1.60;1.50;;;24.30;90.80;;;;;;6080867;23;20445;-67
2022/09/02 09:41:47;;;;;;;1.70;1.60;;;24.80;89.10;;;;;;6074045;23;20521;-67
2022/09/02 09:44:34;;;;;;;2.83;1.43;;;24.80;87.70;;;;;;6077369;23;20532;-67
2022/09/02 09:47:05;;;;;;;1.70;1.60;;;24.70;88.10;;;;;;6081253;23;20744;-67
2022/09/02 09:49:33;;;;;;;1.60;1.50;;;24.90;86.60;;;;;;6087420;23;20546;-67
2022/09/02 09:52:00;;;;;;;1.50;1.40;;;25.10;86.40;;;;;;6069715;23;20470;-67
2022/09/02 09:54:28;;;;;;;1.60;1.50;;;25.60;85.50;;;;;;6080121;23;20528;-67
2022/09/02 09:56:55;;;;;;;1.93;1.33;;;25.90;82.30;;;;;;6083503;23;20503;-67
2022/09/02 09:59:39;;;;;;;1.77;1.30;;;26.00;80.70;;;;;;6087930;23;20433;-67
2022/09/02 10:02:20;;;;;;;1.53;1.40;;;26.00;82.50;;;;;;6088086;23;20466;-67
2022/09/02 10:04:47;;;;;;;1.53;1.43;;;26.20;81.40;;;;;;6076552;23;20521;-67
2022/09/02 10:07:15;;;;;;;1.40;1.30;;;26.40;79.80;;;;;;6083823;23;20915;-67
2022/09/02 10:09:42;;;;;;;1.90;1.40;;;26.40;79.50;;;;;;6079325;23;20824;-67
2022/09/02 10:12:11;;;;;;;2.13;1.20;;;26.20;79.70;;;;;;6084656;23;20796;-68
2022/09/02 10:14:43;;;;;;;1.37;1.27;;;26.20;78.30;;;;;;6076032;23;20504;-67
2022/09/02 10:17:31;;;;;;;2.17;1.37;;;26.30;77.60;;;;;;6083093;23;20430;-68
2022/09/02 10:20:03;;;;;;;1.80;1.40;;;26.30;75.30;;;;;;6079644;23;20430;-68
2022/09/02 10:22:57;;;;;;;1.67;1.40;;;26.40;73.80;;;;;;6079889;23;20543;-67
2022/09/02 10:25:32;;;;;;;1.40;1.30;;;25.90;72.70;;;;;;6068205;23;20446;-67
2022/09/02 10:28:06;;;;;;;1.40;1.30;;;26.00;72.60;;;;;;6082674;23;20464;-67
2022/09/02 10:30:43;;;;;;;2.53;1.17;;;26.10;72.60;;;;;;6073034;23;20498;-67
2022/09/02 10:33:23;;;;;;;1.30;1.20;;;25.80;71.90;;;;;;6079694;23;20552;-67
2022/09/02 10:35:59;;;;;;;1.40;1.30;;;25.90;71.30;;;;;;6080063;23;20438;-69
2022/09/02 10:38:39;;;;;;;1.87;1.00;;;25.80;71.00;;;;;;6077996;23;21003;-67
2022/09/02 10:41:41;;;;;;;2.37;1.23;;;26.10;71.60;;;;;;6075691;23;20490;-68
2022/09/02 10:44:24;;;;;;;3.77;1.40;;;26.10;70.00;;;;;;6059724;23;20512;-68
2022/09/02 10:47:00;;;;;;;1.60;1.10;;;25.30;70.60;;;;;;6081551;23;20564;-67
2022/09/02 10:49:51;;;;;;;3.53;1.20;;;25.00;71.30;;;;;;6078179;23;20469;-67
2022/09/02 10:52:37;;;;;;;2.37;1.20;;;25.50;70.80;;;;;;6080584;23;20469;-68
2022/09/02 10:55:15;;;;;;;3.03;1.40;;;26.00;69.50;;;;;;6084429;23;20458;-67
2022/09/02 10:57:47;;;;;;;1.40;1.07;;;26.00;68.80;;;;;;6083231;23;20444;-67
2022/09/02 11:00:17;;;;;;;1.40;1.20;;;26.00;68.40;;;;;;6076025;23;20462;-67
2022/09/02 11:02:50;;;;;;;1.30;1.20;;;26.10;67.20;;;;;;6081597;23;20506;-67
2022/09/02 11:05:23;;;;;;;1.30;1.20;;;26.40;67.90;;;;;;6083171;23;20492;-67
2022/09/02 11:07:55;;;;;;;1.23;1.13;;;26.40;69.10;;;;;;6080628;23;20435;-67
2022/09/02 11:10:26;;;;;;;2.23;1.10;;;26.40;69.80;;;;;;6079716;23;20821;-68
2022/09/02 11:13:01;;;;;;;1.70;1.40;;;26.50;68.20;;;;;;6078891;23;20518;-67
2022/09/02 11:15:43;;;;;;;1.20;1.10;;;26.20;66.40;;;;;;6076897;23;20525;-67
2022/09/02 11:18:18;;;;;;;3.17;1.13;;;26.20;65.30;;;;;;6084285;23;20632;-67
2022/09/02 11:20:51;;;;;;;2.00;1.30;;;26.20;67.50;;;;;;6071827;23;20459;-68
2022/09/02 11:23:28;;;;;;;1.40;1.30;;;26.30;66.90;;;;;;6077559;23;20511;-67
2022/09/02 11:26:02;;;;;;;1.47;1.00;;;26.70;65.20;;;;;;6080249;23;20525;-69
2022/09/02 11:28:36;;;;;;;2.07;1.37;;;26.90;65.60;;;;;;6085534;23;20442;-67
2022/09/02 11:31:10;;;;;;;1.57;1.00;;;27.10;64.70;;;;;;6080740;23;20470;-68
2022/09/02 11:33:48;;;;;;;1.20;1.10;;;27.30;64.80;;;;;;6069474;23;20497;-67
2022/09/02 11:36:17;;;;;;;1.47;1.07;;;27.60;63.50;;;;;;6079193;23;20469;-67
2022/09/02 11:38:50;;;;;;;1.47;1.10;;;27.60;62.80;;;;;;6075499;23;20513;-67
2022/09/02 11:41:41;;;;;;;1.40;1.30;;;27.60;63.30;;;;;;6077108;23;20586;-67
2022/09/02 11:44:28;;;;;;;1.20;1.10;;;27.40;62.40;;;;;;6084660;23;20463;-67
2022/09/02 11:47:29;;;;;;;2.07;1.23;;;27.40;62.90;;;;;;6078117;23;20467;-67
2022/09/02 11:50:13;;;;;;;1.57;1.20;;;27.40;61.90;;;;;;6071673;23;21209;-67
2022/09/02 11:53:00;;;;;;;1.33;1.20;;;27.60;60.20;;;;;;6079866;23;20439;-66
2022/09/02 11:55:34;;;;;;;2.20;1.30;;;27.30;60.90;;;;;;6073609;23;20446;-67
2022/09/02 11:58:01;;;;;;;1.30;1.20;;;26.90;60.30;;;;;;6085503;23;20430;-67
2022/09/02 12:00:35;;;;;;;1.67;1.07;;;26.60;61.40;;;;;;6083764;23;20798;-67
2022/09/02 12:03:21;;;;;;;2.10;1.10;;;26.60;62.20;;;;;;6077657;23;20460;-68
2022/09/02 12:06:04;;;;;;;2.67;1.20;;;26.90;61.30;;;;;;6074836;23;20446;-67
2022/09/02 12:08:59;;;;;;;1.50;1.20;;;27.30;60.80;;;;;;6077336;23;20431;-67
2022/09/02 12:11:48;;;;;;;1.20;1.10;;;27.30;59.90;;;;;;6073128;23;20470;-67
2022/09/02 12:14:54;;;;;;;1.53;1.27;;;27.60;61.90;;;;;;6078508;23;20462;-67
2022/09/02 12:17:37;;;;;;;1.40;1.20;;;27.80;59.90;;;;;;6038709;23;20435;-67
2022/09/02 12:20:07;;;;;;;1.40;1.20;;;27.90;59.10;;;;;;6080848;23;20451;-67
2022/09/02 12:22:38;;;;;;;1.33;1.23;;;27.70;58.90;;;;;;6080926;23;20435;-67
2022/09/02 12:25:47;;;;;;;1.80;1.20;;;27.40;59.10;;;;;;6086473;23;20470;-67
2022/09/02 12:28:26;;;;;;;1.40;1.30;;;26.90;59.30;;;;;;6029006;23;20518;-68
2022/09/02 12:31:14;;;;;;;1.60;1.30;;;26.50;59.00;;;;;;6076198;23;20473;-67
2022/09/02 12:33:43;;;;;;;1.97;1.30;;;26.30;59.60;;;;;;6079070;23;21033;-68
2022/09/02 12:36:50;;;;;;;1.57;1.30;;;26.40;59.60;;;;;;6086235;23;20439;-68
2022/09/02 12:39:53;;;;;;;1.60;1.23;;;26.50;58.40;;;;;;6080012;23;20438;-68
2022/09/02 12:42:26;;;;;;;2.27;1.20;;;26.70;58.60;;;;;;6079067;23;20472;-68
2022/09/02 12:45:03;;;;;;;1.57;1.47;;;27.00;58.00;;;;;;6074380;23;21024;-68
2022/09/02 12:47:44;;;;;;;1.93;1.43;;;27.20;57.90;;;;;;6084844;23;20906;-68
2022/09/02 12:50:22;;;;;;;1.23;1.10;;;27.60;57.50;;;;;;6083209;23;21053;-68
2022/09/02 12:52:53;;;;;;;1.67;1.57;;;27.80;57.40;;;;;;6076705;23;20467;-68
2022/09/02 12:55:24;;;;;;;1.30;1.20;;;28.10;57.10;;;;;;6086955;23;20438;-68
2022/09/02 12:57:54;;;;;;;1.80;1.10;;;28.20;57.50;;;;;;6079573;23;20439;-68
2022/09/02 13:00:36;;;;;;;1.50;1.40;;;28.10;57.60;;;;;;6076016;23;20996;-68
2022/09/02 13:03:20;;;;;;;2.30;1.40;;;27.90;56.70;;;;;;6082937;23;20470;-68
2022/09/02 13:05:55;;;;;;;4.67;1.30;;;27.80;56.70;;;;;;6075542;23;20469;-68
2022/09/02 13:09:09;;;;;;;2.90;1.50;;;27.40;57.80;;;;;;6073897;23;20435;-68
2022/09/02 13:12:13;;;;;;;1.57;1.27;;;27.60;57.90;;;;;;6071337;23;20474;-69
2022/09/02 13:15:01;;;;;;;1.43;1.33;;;27.90;57.40;;;;;;6080754;23;20462;-68
2022/09/02 13:17:48;;;;;;;1.80;1.50;;;27.80;57.20;;;;;;6078461;23;20984;-69